Nearby METAR Reports

 

KSYN - Stanton, Minnesota, USA
Distance from station: NW 20mi, 33km
Updated: Sat, 22-Jun-2024 12:55pm CDT
Overcast
Overcast
 Wind from NE
Wind: NE 5 mph, 7 km/h
Temperature: 75°F, 24°C
Dew Point: 66°F, 19°C
Humidity: 74%
Barometer: 29.81 inHg, 1009.5 hPa
Clouds: Overcast
Visibility: 10 miles, 16 km
Cloud details: Partly cloudy 1600 ft
Mostly cloudy 2400 ft
Overcast 3300 ft
2024/06/22 17:55 KSYN 221755Z AUTO 05004KT 10SM SCT016 BKN024 OVC033 24/19 A2981 RMK AO2
KTOB - Dodge Center, Minnesota, USA
Distance from station: SSW 21mi, 34km
Updated: Sat, 22-Jun-2024 12:55pm CDT
Haze, Mostly cloudy
Haze, Mostly cloudy
 Wind from NE
Wind: NE 5 mph, 7 km/h
Temperature: 75°F, 24°C
Dew Point: 70°F, 21°C
Humidity: 83%
Barometer: 29.82 inHg, 1009.8 hPa
Summary: Haze
Clouds: Mostly cloudy
Visibility: 5 miles, 8 km
Cloud details: Mostly cloudy 1800 ft
Mostly cloudy 2500 ft
2024/06/22 17:55 KTOB 221755Z AUTO 04004KT 5SM HZ BKN018 BKN025 24/21 A2982 RMK AO2
K9MN - St Mary Hospital, Minnesota, USA
Distance from station: SSE 22mi, 35km
Updated: Sat, 22-Jun-2024 12:55pm CDT
Overcast
Overcast
 Wind from N
Wind: N 6 mph, 9 km/h
Temperature: 75°F, 24°C
Dew Point: 66°F, 19°C
Humidity: 74%
Barometer: 29.82 inHg, 1009.8 hPa
Clouds: Overcast
Visibility: 10 miles, 16 km
Cloud details: Partly cloudy 1600 ft
Partly cloudy 2300 ft
Overcast 3000 ft
2024/06/22 17:55 K9MN 221755Z AUTO 01005KT 10SM SCT016 SCT023 OVC030 24/19 A2982 RMK AO1 T02360190 10236 20191
 
KRGK - Red Wing, Minnesota, USA
Distance from station: NNE 22mi, 35km
Updated: Sat, 22-Jun-2024 12:55pm CDT
Mostly cloudy
Mostly cloudy
 Wind from SSW
Wind: SSW 5 mph, 7 km/h
Temperature: 73°F, 23°C
Dew Point: 66°F, 19°C
Humidity: 78%
Barometer: 29.80 inHg, 1009.1 hPa
Clouds: Mostly cloudy
Visibility: 10 miles, 16 km
Cloud details: Partly cloudy 1200 ft
Mostly cloudy 3400 ft
2024/06/22 17:55 KRGK 221755Z AUTO 20004KT 10SM SCT012 BKN034 23/19 A2980 RMK AO2
KRST - Rochester, Minnesota, USA
Distance from station: SSE 29mi, 47km
Updated: Sat, 22-Jun-2024 12:54pm CDT
Mostly cloudy
Mostly cloudy
 Wind from ENE
Wind: ENE 6 mph, 9 km/h
Temperature: 77°F, 25°C
Dew Point: 68°F, 20°C
Humidity: 74%
Barometer: 29.81 inHg, 1009.5 hPa
Clouds: Mostly cloudy
Visibility: 10 miles, 16 km
Cloud details: Few Clouds 1800 ft
Mostly cloudy 2900 ft
2024/06/22 17:54 KRST 221754Z 07005KT 10SM FEW018 BKN029 25/20 A2981 RMK AO2 SLP087 60001 T02500200 10256 20189 56013
KOWA - Owatonna, Minnesota, USA
Distance from station: WSW 31mi, 50km
Updated: Sat, 22-Jun-2024 12:53pm CDT
Mostly cloudy
Mostly cloudy
 Wind from ENE
Wind: ENE 6 mph, 9 km/h
Temperature: 75°F, 24°C
Dew Point: 66°F, 19°C
Humidity: 74%
Barometer: 29.80 inHg, 1009.1 hPa
Clouds: Mostly cloudy
Visibility: 10 miles, 16 km
Cloud details: Mostly cloudy 2200 ft
Mostly cloudy 10000 ft
2024/06/22 17:53 KOWA 221753Z AUTO 07005KT 10SM BKN022 BKN100 24/19 A2980 RMK AO2
 
KFBL - Faribault Muni, Minnesota, USA
Distance from station: W 32mi, 51km
Updated: Sat, 22-Jun-2024 12:55pm CDT
Mostly cloudy
Mostly cloudy
 Wind from calm
Wind: Calm
Temperature: 75°F, 24°C
Dew Point: 66°F, 19°C
Humidity: 74%
Barometer: 29.80 inHg, 1009.1 hPa
Clouds: Mostly cloudy
Visibility: 10 miles, 16 km
Cloud details: Partly cloudy 2700 ft
Mostly cloudy 3200 ft
2024/06/22 17:55 KFBL 221755Z AUTO 00000KT 10SM SCT027 BKN032 24/19 A2980 RMK AO2 LTG DSNT NW
KSGS - South St Paul, Minnesota, USA
Distance from station: NNW 43mi, 69km
Updated: Sat, 22-Jun-2024 12:55pm CDT
Overcast
Overcast
 Wind from calm
Wind: Calm
Temperature: 73°F, 23°C
Dew Point: 66°F, 19°C
Humidity: 78%
Barometer: 29.80 inHg, 1009.1 hPa
Clouds: Overcast
Visibility: 10 miles, 16 km
Cloud details: Mostly cloudy 2100 ft
Overcast 2600 ft
2024/06/22 17:55 KSGS 221755Z AUTO 00000KT 10SM BKN021 OVC026 23/19 A2980 RMK AO2 T02310188 10231 20192
KAUM - Austin Muni, Minnesota, USA
Distance from station: SSW 46mi, 73km
Updated: Sat, 22-Jun-2024 12:55pm CDT
Partly cloudy
Partly cloudy
 Wind from calm
Wind: Calm
Temperature: 79°F, 26°C
Dew Point: 70°F, 21°C
Humidity: 74%
Barometer: 29.81 inHg, 1009.5 hPa
Clouds: Partly cloudy
Visibility: 10 miles, 16 km
Cloud details: Partly cloudy 1700 ft
Partly cloudy 2300 ft
2024/06/22 17:55 KAUM 221755Z AUTO 00000KT 10SM SCT017 SCT023 26/21 A2981 RMK AO2
 
KACQ - Waseca, Minnesota, USA
Distance from station: WSW 46mi, 75km
Updated: Sat, 22-Jun-2024 12:55pm CDT
Overcast
Overcast
 Wind from calm
Wind: Calm
Temperature: 73°F, 23°C
Dew Point: 64°F, 18°C
Humidity: 74%
Barometer: 29.82 inHg, 1009.8 hPa
Clouds: Overcast
Visibility: 10 miles, 16 km
Cloud details: Mostly cloudy 1900 ft
Overcast 9500 ft
2024/06/22 17:55 KACQ 221755Z AUTO 00000KT 10SM BKN019 OVC095 23/18 A2982 RMK AO2
KSTP - St. Paul, Minnesota, USA
Distance from station: NNW 47mi, 76km
Updated: Sat, 22-Jun-2024 12:53pm CDT
Overcast
Overcast
 Wind from calm
Wind: Calm
Temperature: 73°F, 23°C
Dew Point: 66°F, 19°C
Humidity: 78%
Barometer: 29.80 inHg, 1009.1 hPa
Clouds: Overcast
Visibility: 10 miles, 16 km
Cloud details: Few Clouds 2200 ft
Overcast 3000 ft
2024/06/22 17:53 KSTP 221753Z 00000KT 10SM FEW022 OVC030 23/19 A2980 RMK AO2 SLP085 T02330189 10239 20200 56007
KMSP - Minneapolis, Minnesota, USA
Distance from station: NW 49mi, 78km
Updated: Sat, 22-Jun-2024 12:53pm CDT
Overcast
Overcast
 Wind from calm
Wind: Calm
Temperature: 75°F, 24°C
Dew Point: 64°F, 18°C
Humidity: 69%
Barometer: 29.80 inHg, 1009.1 hPa
Clouds: Overcast
Visibility: 10 miles, 16 km
Cloud details: Mostly cloudy 2000 ft
Overcast 3000 ft
2024/06/22 17:53 KMSP 221753Z 00000KT 10SM BKN020 OVC030 24/18 A2980 RMK AO2 SLP086 T02390183 10239 20194 56014